createdAt,value
2022-08-21T00:01:38.720Z,16.37
2022-08-21T00:04:08.942Z,16.41
2022-08-21T00:06:37.718Z,16.51
2022-08-21T00:09:06.922Z,16.49
2022-08-21T00:11:36.044Z,16.51
2022-08-21T00:14:03.645Z,16.63
2022-08-21T00:16:30.343Z,16.58
2022-08-21T00:18:56.759Z,16.58
2022-08-21T00:21:23.377Z,16.57
2022-08-21T00:23:49.886Z,16.53
2022-08-21T00:26:16.328Z,16.58
2022-08-21T00:28:42.722Z,16.61
2022-08-21T00:31:09.148Z,16.59
2022-08-21T00:33:35.639Z,16.64
2022-08-21T00:36:02.451Z,16.55
2022-08-21T00:38:28.843Z,16.55
2022-08-21T00:40:58.549Z,16.58
2022-08-21T00:43:31.455Z,16.51
2022-08-21T00:45:58.872Z,16.59
2022-08-21T00:48:26.033Z,16.62
2022-08-21T00:50:59.029Z,16.63
2022-08-21T00:53:26.073Z,16.62
2022-08-21T00:55:53.068Z,16.58
2022-08-21T00:58:24.677Z,16.50
2022-08-21T01:00:52.954Z,16.48
2022-08-21T01:03:23.691Z,16.48
2022-08-21T01:05:51.195Z,16.50
2022-08-21T01:08:18.860Z,16.49
2022-08-21T01:10:46.690Z,16.46
2022-08-21T01:13:19.589Z,16.48
2022-08-21T01:15:49.770Z,16.44
2022-08-21T01:18:17.546Z,16.41
2022-08-21T01:21:05.849Z,16.31
2022-08-21T01:23:33.505Z,16.47
2022-08-21T01:25:59.972Z,16.49
2022-08-21T01:28:28.857Z,16.50
2022-08-21T01:30:56.153Z,16.46
2022-08-21T01:33:25.451Z,16.51
2022-08-21T01:35:52.084Z,16.52
2022-08-21T01:38:18.823Z,16.47
2022-08-21T01:40:45.450Z,16.50
2022-08-21T01:43:11.895Z,16.49
2022-08-21T01:45:38.465Z,16.48
2022-08-21T01:48:05.015Z,16.46
2022-08-21T01:50:31.988Z,16.37
2022-08-21T01:52:58.833Z,16.31
2022-08-21T01:55:25.581Z,16.21
2022-08-21T01:57:52.095Z,16.23
2022-08-21T02:00:21.339Z,16.18
2022-08-21T02:02:47.739Z,16.12
2022-08-21T02:05:14.563Z,16.08
2022-08-21T02:07:51.514Z,16.09
2022-08-21T02:10:22.404Z,16.06
2022-08-21T02:12:48.889Z,16.02
2022-08-21T02:15:15.591Z,16.05
2022-08-21T02:17:48.341Z,16.02
2022-08-21T02:20:36.907Z,16.02
2022-08-21T02:23:05.137Z,16.02
2022-08-21T02:25:32.539Z,16.02
2022-08-21T02:28:00.384Z,15.99
2022-08-21T02:30:34.584Z,15.94
2022-08-21T02:33:01.750Z,16.06
2022-08-21T02:35:28.578Z,16.01
2022-08-21T02:37:59.634Z,16.01
2022-08-21T02:40:29.445Z,15.84
2022-08-21T02:42:55.912Z,15.86
2022-08-21T02:45:22.405Z,15.83
2022-08-21T02:47:54.474Z,15.85
2022-08-21T02:50:23.880Z,15.85
2022-08-21T02:52:55.165Z,15.91
2022-08-21T02:55:23.601Z,15.86
2022-08-21T02:57:50.549Z,15.89
2022-08-21T03:00:17.509Z,15.98
2022-08-21T03:02:45.497Z,15.98
2022-08-21T03:05:12.461Z,16.03
2022-08-21T03:07:40.062Z,16.06
2022-08-21T03:10:07.541Z,16.08
2022-08-21T03:12:36.383Z,16.11
2022-08-21T03:15:05.697Z,16.11
2022-08-21T03:17:32.146Z,16.09
2022-08-21T03:19:58.654Z,16.14
2022-08-21T03:22:25.745Z,16.15
2022-08-21T03:24:54.313Z,16.10
2022-08-21T03:27:20.747Z,16.15
2022-08-21T03:29:49.233Z,16.19
2022-08-21T03:32:15.780Z,16.23
2022-08-21T03:34:43.068Z,16.22
2022-08-21T03:37:11.798Z,16.30
2022-08-21T03:39:38.518Z,16.38
2022-08-21T03:42:05.955Z,16.38
2022-08-21T03:44:33.572Z,16.30
2022-08-21T03:47:00.075Z,16.16
2022-08-21T03:49:27.156Z,16.11
2022-08-21T03:51:59.153Z,16.04
2022-08-21T03:54:26.541Z,15.98
2022-08-21T03:56:55.443Z,15.94
2022-08-21T03:59:21.893Z,15.95
2022-08-21T04:01:57.454Z,15.97
2022-08-21T04:04:24.742Z,15.91
2022-08-21T04:06:51.350Z,15.91
2022-08-21T04:09:18.890Z,15.92
2022-08-21T04:11:46.967Z,16.12
2022-08-21T04:14:15.278Z,16.24
2022-08-21T04:16:43.107Z,16.23
2022-08-21T04:19:10.068Z,16.14
2022-08-21T04:21:38.689Z,15.96
2022-08-21T04:24:06.849Z,15.87
2022-08-21T04:26:34.386Z,15.81
2022-08-21T04:29:01.450Z,15.81
2022-08-21T04:31:29.523Z,15.90
2022-08-21T04:33:57.634Z,15.97
2022-08-21T04:36:24.569Z,15.96
2022-08-21T04:38:52.632Z,15.96
2022-08-21T04:41:25.106Z,15.98
2022-08-21T04:43:56.176Z,15.94
2022-08-21T04:46:23.342Z,15.88
2022-08-21T04:48:50.786Z,15.86
2022-08-21T04:51:21.002Z,15.78
2022-08-21T04:54:01.491Z,15.98
2022-08-21T04:56:32.511Z,16.04
2022-08-21T04:59:04.614Z,16.03
2022-08-21T05:01:35.495Z,16.14
2022-08-21T05:04:05.438Z,16.20
2022-08-21T05:06:34.852Z,16.19
2022-08-21T05:09:02.491Z,16.31
2022-08-21T05:11:31.643Z,16.38
2022-08-21T05:13:58.135Z,16.42
2022-08-21T05:16:36.785Z,16.46
2022-08-21T05:19:06.385Z,16.47
2022-08-21T05:21:33.808Z,16.48
2022-08-21T05:24:00.628Z,16.55
2022-08-21T05:26:27.068Z,16.51
2022-08-21T05:28:53.477Z,16.47
2022-08-21T05:31:19.877Z,16.50
2022-08-21T05:33:46.287Z,16.46
2022-08-21T05:36:12.695Z,16.48
2022-08-21T05:38:39.082Z,16.54
2022-08-21T05:41:05.631Z,16.61
2022-08-21T05:43:33.940Z,16.62
2022-08-21T05:46:00.696Z,16.58
2022-08-21T05:48:27.307Z,16.60
2022-08-21T05:50:54.066Z,16.64
2022-08-21T05:53:23.381Z,16.55
2022-08-21T05:55:50.524Z,16.68
2022-08-21T05:58:19.396Z,16.54
2022-08-21T06:00:48.653Z,16.64
2022-08-21T06:03:25.075Z,16.78
2022-08-21T06:05:52.141Z,16.86
2022-08-21T06:08:19.246Z,16.90
2022-08-21T06:10:46.846Z,16.95
2022-08-21T06:13:14.291Z,17.01
2022-08-21T06:15:40.789Z,17.07
2022-08-21T06:18:07.459Z,17.11
2022-08-21T06:20:34.229Z,17.15
2022-08-21T06:23:01.380Z,17.19
2022-08-21T06:25:28.259Z,17.24
2022-08-21T06:28:01.863Z,17.32
2022-08-21T06:30:28.406Z,17.35
2022-08-21T06:32:55.131Z,17.37
2022-08-21T06:35:21.615Z,17.44
2022-08-21T06:37:48.047Z,17.47
2022-08-21T06:40:14.493Z,17.46
2022-08-21T06:42:42.746Z,17.58
2022-08-21T06:45:10.663Z,17.62
2022-08-21T06:47:37.411Z,17.69
2022-08-21T06:50:04.682Z,17.72
2022-08-21T06:52:31.353Z,17.77
2022-08-21T06:54:57.736Z,17.78
2022-08-21T06:57:24.189Z,17.85
2022-08-21T06:59:50.577Z,17.85
2022-08-21T07:02:17.007Z,17.94
2022-08-21T07:04:43.473Z,17.95
2022-08-21T07:07:10.065Z,18.00
2022-08-21T07:09:36.510Z,18.05
2022-08-21T07:12:03.447Z,18.11
2022-08-21T07:14:29.872Z,18.18
2022-08-21T07:16:56.872Z,18.29
2022-08-21T07:19:23.311Z,18.32
2022-08-21T07:21:49.801Z,18.35
2022-08-21T07:24:16.318Z,18.40
2022-08-21T07:26:43.020Z,18.42
2022-08-21T07:29:09.884Z,18.43
2022-08-21T07:31:36.459Z,18.40
2022-08-21T07:34:03.155Z,18.42
2022-08-21T07:36:29.596Z,18.37
2022-08-21T07:38:59.790Z,18.38
2022-08-21T07:41:29.533Z,18.39
2022-08-21T07:43:59.855Z,18.43
2022-08-21T07:46:28.990Z,18.51
2022-08-21T07:48:55.716Z,18.52
2022-08-21T07:51:27.850Z,18.54
2022-08-21T07:53:57.120Z,18.57
2022-08-21T07:56:23.713Z,18.54
2022-08-21T07:58:50.167Z,18.53
2022-08-21T08:01:16.709Z,18.53
2022-08-21T08:03:43.453Z,18.55
2022-08-21T08:06:13.199Z,18.58
2022-08-21T08:08:41.654Z,18.69
2022-08-21T08:11:11.784Z,18.79
2022-08-21T08:13:41.209Z,18.71
2022-08-21T08:16:07.889Z,18.76
2022-08-21T08:18:34.318Z,18.72
2022-08-21T08:21:00.923Z,18.71
2022-08-21T08:23:28.271Z,18.67
2022-08-21T08:25:55.003Z,18.69
2022-08-21T08:28:22.794Z,18.66
2022-08-21T08:30:50.493Z,18.67
2022-08-21T08:33:17.943Z,18.68
2022-08-21T08:35:47.194Z,18.77
2022-08-21T08:38:19.644Z,18.93
2022-08-21T08:40:56.550Z,19.11
2022-08-21T08:43:23.575Z,19.20
2022-08-21T08:45:54.767Z,19.39
2022-08-21T08:48:49.367Z,19.62
2022-08-21T08:51:27.128Z,19.81
2022-08-21T08:54:01.355Z,20.10
2022-08-21T08:56:32.519Z,20.23
2022-08-21T08:59:09.453Z,20.54
2022-08-21T09:01:38.970Z,20.63
2022-08-21T09:04:07.433Z,20.56
2022-08-21T09:06:41.289Z,20.44
2022-08-21T09:09:16.921Z,20.46
2022-08-21T09:11:53.476Z,20.16
2022-08-21T09:14:44.869Z,20.24
2022-08-21T09:17:14.758Z,20.17
2022-08-21T09:20:12.828Z,20.49
2022-08-21T09:25:15.667Z,21.02
2022-08-21T09:27:42.473Z,21.16
2022-08-21T09:30:10.938Z,21.09
2022-08-21T09:32:39.290Z,21.06
2022-08-21T09:35:11.063Z,21.22
2022-08-21T09:37:52.597Z,21.19
2022-08-21T09:40:33.769Z,21.24
2022-08-21T09:43:22.484Z,21.38
2022-08-21T09:45:50.589Z,21.43
2022-08-21T09:48:27.196Z,21.48
2022-08-21T09:51:36.720Z,21.52
2022-08-21T09:54:08.769Z,21.46
2022-08-21T09:56:58.553Z,21.46
2022-08-21T09:59:24.899Z,21.50
2022-08-21T10:01:53.774Z,21.57
2022-08-21T10:04:23.788Z,21.70
2022-08-21T10:06:50.532Z,21.93
2022-08-21T10:09:21.661Z,21.81
2022-08-21T10:12:20.574Z,21.79
2022-08-21T10:15:08.741Z,21.81
2022-08-21T10:18:05.079Z,21.87
2022-08-21T10:20:47.033Z,21.79
2022-08-21T10:23:19.115Z,21.87
2022-08-21T10:26:12.947Z,21.86
2022-08-21T10:29:04.734Z,21.90
2022-08-21T10:31:37.184Z,22.05
2022-08-21T10:34:06.741Z,22.09
2022-08-21T10:36:43.404Z,21.97
2022-08-21T10:39:39.892Z,21.82
2022-08-21T10:42:33.851Z,21.71
2022-08-21T10:45:12.455Z,21.64
2022-08-21T10:47:47.632Z,21.65
2022-08-21T10:50:42.649Z,21.56
2022-08-21T10:53:30.029Z,21.48
2022-08-21T10:56:02.838Z,21.46
2022-08-21T10:58:38.044Z,21.38
2022-08-21T11:01:17.624Z,21.42
2022-08-21T11:04:02.359Z,21.44
2022-08-21T11:06:33.541Z,21.60
2022-08-21T11:09:10.955Z,21.66
2022-08-21T11:12:25.708Z,22.00
2022-08-21T11:15:28.710Z,22.27
2022-08-21T11:18:12.667Z,22.15
2022-08-21T11:20:59.918Z,21.92
2022-08-21T11:23:34.914Z,21.84
2022-08-21T11:26:11.851Z,21.87
2022-08-21T11:28:53.131Z,21.92
2022-08-21T11:31:47.370Z,21.98
2022-08-21T11:34:36.419Z,22.16
2022-08-21T11:37:08.071Z,22.39
2022-08-21T11:40:01.479Z,22.19
2022-08-21T11:42:46.037Z,22.21
2022-08-21T11:45:38.541Z,22.25
2022-08-21T11:48:32.416Z,22.08
2022-08-21T11:51:01.480Z,22.18
2022-08-21T11:53:37.501Z,22.30
2022-08-21T11:56:24.017Z,22.28
2022-08-21T11:58:56.381Z,22.56
2022-08-21T12:01:42.044Z,22.57
2022-08-21T12:04:28.917Z,22.63
2022-08-21T12:06:57.005Z,22.69
2022-08-21T12:09:26.534Z,22.69
2022-08-21T12:12:33.202Z,22.60
2022-08-21T12:15:27.444Z,22.73
2022-08-21T12:17:59.405Z,22.85
2022-08-21T12:20:34.613Z,22.76
2022-08-21T12:23:13.382Z,22.68
2022-08-21T12:25:46.060Z,22.67
2022-08-21T12:28:16.346Z,22.61
2022-08-21T12:30:46.317Z,22.72
2022-08-21T12:33:18.755Z,22.63
2022-08-21T12:35:46.186Z,22.57
2022-08-21T12:38:24.780Z,22.42
2022-08-21T12:41:26.146Z,22.48
2022-08-21T12:44:00.039Z,22.40
2022-08-21T12:46:40.699Z,22.41
2022-08-21T12:49:26.947Z,22.37
2022-08-21T12:52:04.217Z,22.26
2022-08-21T12:54:38.462Z,22.36
2022-08-21T12:57:07.485Z,22.30
2022-08-21T12:59:39.321Z,22.49
2022-08-21T13:02:25.255Z,22.57
2022-08-21T13:04:54.081Z,22.54
2022-08-21T13:07:27.710Z,22.53
2022-08-21T13:09:59.101Z,22.53
2022-08-21T13:12:29.591Z,22.52
2022-08-21T13:15:04.642Z,22.49
2022-08-21T13:17:39.569Z,22.38
2022-08-21T13:20:20.758Z,22.32
2022-08-21T13:22:47.458Z,22.29
2022-08-21T13:25:16.452Z,22.32
2022-08-21T13:27:45.153Z,22.40
2022-08-21T13:30:15.340Z,22.43
2022-08-21T13:32:51.157Z,22.49
2022-08-21T13:35:22.138Z,22.54
2022-08-21T13:37:52.641Z,22.58
2022-08-21T13:40:40.706Z,22.58
2022-08-21T13:43:14.343Z,22.54
2022-08-21T13:45:51.913Z,22.57
2022-08-21T13:48:19.279Z,22.58
2022-08-21T13:50:46.747Z,22.60
2022-08-21T13:53:43.690Z,22.67
2022-08-21T13:56:10.230Z,22.76
2022-08-21T13:58:47.614Z,22.64
2022-08-21T14:01:24.986Z,22.63
2022-08-21T14:03:54.862Z,22.56
2022-08-21T14:06:24.950Z,22.46
2022-08-21T14:08:56.567Z,22.39
2022-08-21T14:11:23.367Z,22.33
2022-08-21T14:13:57.866Z,22.39
2022-08-21T14:16:27.855Z,22.35
2022-08-21T14:19:10.453Z,22.34
2022-08-21T14:21:41.717Z,22.38
2022-08-21T14:24:10.346Z,22.40
2022-08-21T14:26:46.677Z,22.42
2022-08-21T14:29:16.563Z,22.33
2022-08-21T14:31:44.084Z,22.40
2022-08-21T14:34:19.675Z,22.43
2022-08-21T14:36:47.247Z,22.46
2022-08-21T14:39:13.678Z,22.51
2022-08-21T14:41:40.247Z,22.47
2022-08-21T14:44:09.618Z,22.44
2022-08-21T14:46:39.174Z,22.37
2022-08-21T14:49:20.756Z,22.32
2022-08-21T14:51:53.935Z,22.37
2022-08-21T14:54:20.964Z,22.37
2022-08-21T14:56:49.782Z,22.33
2022-08-21T14:59:20.853Z,22.29
2022-08-21T15:01:47.386Z,22.34
2022-08-21T15:04:13.922Z,22.29
2022-08-21T15:06:40.350Z,22.28
2022-08-21T15:09:07.126Z,22.26
2022-08-21T15:11:42.419Z,22.21
2022-08-21T15:14:22.431Z,22.26
2022-08-21T15:16:49.718Z,22.41
2022-08-21T15:19:16.138Z,22.39
2022-08-21T15:21:42.698Z,22.30
2022-08-21T15:24:09.187Z,22.24
2022-08-21T15:26:36.955Z,22.31
2022-08-21T15:29:06.875Z,22.28
2022-08-21T15:31:33.941Z,22.20
2022-08-21T15:34:00.370Z,22.10
2022-08-21T15:36:26.894Z,22.03
2022-08-21T15:38:53.301Z,22.01
2022-08-21T15:41:19.967Z,22.02
2022-08-21T15:43:50.406Z,21.87
2022-08-21T15:46:19.082Z,21.79
2022-08-21T15:48:47.064Z,21.89
2022-08-21T15:51:15.190Z,21.89
2022-08-21T15:53:41.742Z,21.85
2022-08-21T15:56:18.637Z,21.90
2022-08-21T15:58:45.087Z,21.93
2022-08-21T16:01:11.656Z,21.84
2022-08-21T16:03:39.302Z,21.97
2022-08-21T16:06:05.934Z,22.03
2022-08-21T16:08:32.387Z,22.01
2022-08-21T16:10:58.817Z,21.99
2022-08-21T16:13:35.484Z,21.89
2022-08-21T16:16:02.350Z,21.82
2022-08-21T16:18:29.021Z,21.74
2022-08-21T16:20:55.502Z,21.70
2022-08-21T16:23:21.982Z,21.62
2022-08-21T16:25:49.214Z,21.53
2022-08-21T16:28:17.989Z,21.37
2022-08-21T16:30:47.964Z,21.23
2022-08-21T16:33:25.628Z,21.08
2022-08-21T16:35:52.281Z,20.99
2022-08-21T16:38:18.905Z,20.95
2022-08-21T16:40:45.416Z,20.82
2022-08-21T16:43:11.877Z,20.75
2022-08-21T16:45:39.412Z,20.75
2022-08-21T16:48:09.655Z,20.76
2022-08-21T16:50:37.741Z,20.68
2022-08-21T16:53:04.244Z,20.56
2022-08-21T16:55:30.866Z,20.57
2022-08-21T16:57:57.297Z,20.59
2022-08-21T17:00:24.202Z,20.62
2022-08-21T17:02:54.845Z,20.64
2022-08-21T17:05:21.494Z,20.59
2022-08-21T17:07:48.010Z,20.58
2022-08-21T17:10:16.764Z,20.55
2022-08-21T17:12:51.362Z,20.48
2022-08-21T17:15:22.719Z,20.45
2022-08-21T17:17:50.333Z,20.54
2022-08-21T17:20:17.677Z,20.57
2022-08-21T17:22:44.191Z,20.59
2022-08-21T17:25:11.120Z,20.56
2022-08-21T17:27:38.804Z,20.51
2022-08-21T17:30:07.028Z,20.47
2022-08-21T17:32:33.725Z,20.45
2022-08-21T17:35:00.116Z,20.39
2022-08-21T17:37:29.339Z,20.36
2022-08-21T17:39:56.687Z,20.33
2022-08-21T17:42:25.155Z,20.27
2022-08-21T17:44:52.162Z,20.23
2022-08-21T17:47:18.769Z,20.19
2022-08-21T17:49:45.276Z,20.13
2022-08-21T17:52:11.702Z,20.05
2022-08-21T17:54:38.361Z,20.00
2022-08-21T17:57:05.605Z,20.02
2022-08-21T17:59:32.726Z,19.98
2022-08-21T18:02:01.668Z,19.95
2022-08-21T18:04:29.845Z,19.90
2022-08-21T18:06:56.944Z,19.86
2022-08-21T18:09:27.849Z,19.83
2022-08-21T18:11:59.344Z,19.73
2022-08-21T18:14:32.327Z,19.75
2022-08-21T18:16:59.007Z,19.70
2022-08-21T18:19:26.227Z,19.67
2022-08-21T18:21:56.764Z,19.64
2022-08-21T18:24:23.935Z,19.56
2022-08-21T18:26:51.892Z,19.54
2022-08-21T18:29:20.728Z,19.53
2022-08-21T18:31:47.741Z,19.52
2022-08-21T18:34:37.424Z,19.51
2022-08-21T18:37:05.025Z,19.51
2022-08-21T18:39:36.758Z,19.48
2022-08-21T18:42:08.669Z,19.45
2022-08-21T18:44:35.073Z,19.44
2022-08-21T18:47:05.872Z,19.47
2022-08-21T18:49:32.315Z,19.42
2022-08-21T18:52:00.753Z,19.36
2022-08-21T18:54:30.017Z,19.30
2022-08-21T18:56:56.510Z,19.26
2022-08-21T18:59:26.785Z,19.25
2022-08-21T19:01:53.818Z,19.23
2022-08-21T19:04:43.221Z,19.24
2022-08-21T19:07:07.370Z,19.26
2022-08-21T19:09:33.784Z,19.28
2022-08-21T19:12:00.363Z,19.22
2022-08-21T19:14:28.300Z,19.19
2022-08-21T19:16:54.838Z,19.19
2022-08-21T19:19:21.486Z,19.15
2022-08-21T19:21:49.484Z,19.14
2022-08-21T19:24:17.895Z,19.12
2022-08-21T19:26:45.064Z,19.06
2022-08-21T19:29:12.567Z,19.02
2022-08-21T19:31:44.254Z,19.01
2022-08-21T19:34:19.936Z,19.01
2022-08-21T19:36:46.988Z,18.99
2022-08-21T19:39:15.187Z,18.95
2022-08-21T19:41:45.932Z,18.92
2022-08-21T19:44:20.987Z,18.88
2022-08-21T19:46:49.985Z,18.81
2022-08-21T19:49:22.150Z,18.77
2022-08-21T19:51:48.855Z,18.72
2022-08-21T19:54:21.669Z,18.65
2022-08-21T19:56:48.614Z,18.59
2022-08-21T19:59:17.686Z,18.36
2022-08-21T20:01:44.839Z,18.56
2022-08-21T20:06:58.257Z,18.53
2022-08-21T20:09:24.865Z,18.49
2022-08-21T20:11:57.755Z,18.50
2022-08-21T20:14:34.115Z,18.51
2022-08-21T20:17:06.386Z,18.49
2022-08-21T20:19:32.871Z,18.51
2022-08-21T20:21:59.796Z,18.50
2022-08-21T20:24:27.446Z,18.51
2022-08-21T20:26:54.587Z,18.44
2022-08-21T20:29:23.969Z,18.44
2022-08-21T20:31:52.812Z,18.45
2022-08-21T20:34:19.232Z,18.47
2022-08-21T20:36:47.392Z,18.43
2022-08-21T20:39:14.417Z,18.39
2022-08-21T20:41:41.583Z,18.37
2022-08-21T20:44:12.771Z,18.41
2022-08-21T20:46:39.798Z,18.40
2022-08-21T20:49:08.199Z,18.39
2022-08-21T20:51:44.852Z,18.28
2022-08-21T20:54:34.083Z,18.39
2022-08-21T20:57:14.670Z,18.36
2022-08-21T20:59:56.738Z,18.33
2022-08-21T21:02:23.171Z,18.33
2022-08-21T21:05:00.130Z,18.32
2022-08-21T21:08:02.032Z,18.33
2022-08-21T21:10:33.314Z,18.32
2022-08-21T21:13:08.486Z,18.31
2022-08-21T21:15:36.176Z,18.33
2022-08-21T21:18:10.527Z,18.32
2022-08-21T21:21:06.917Z,18.29
2022-08-21T21:23:50.548Z,18.29
2022-08-21T21:26:29.274Z,18.26
2022-08-21T21:29:22.082Z,18.29
2022-08-21T21:31:51.336Z,18.27
2022-08-21T21:34:23.793Z,18.19
2022-08-21T21:37:02.809Z,18.08
2022-08-21T21:39:49.889Z,18.18
2022-08-21T21:42:53.052Z,18.19
2022-08-21T21:45:36.638Z,18.17
2022-08-21T21:48:30.578Z,18.08
2022-08-21T21:51:01.823Z,17.99
2022-08-21T21:54:03.732Z,17.92
2022-08-21T21:56:49.730Z,17.76
2022-08-21T21:59:29.833Z,17.87
2022-08-21T22:02:08.747Z,17.91
2022-08-21T22:04:57.917Z,17.94
2022-08-21T22:07:37.607Z,17.92
2022-08-21T22:10:30.194Z,17.98
2022-08-21T22:13:26.323Z,17.97
2022-08-21T22:16:11.550Z,17.94
2022-08-21T22:18:46.002Z,17.82
2022-08-21T22:21:28.912Z,17.83
2022-08-21T22:24:08.462Z,17.81
2022-08-21T22:26:43.708Z,17.80
2022-08-21T22:29:15.003Z,17.69
2022-08-21T22:31:41.675Z,17.77
2022-08-21T22:37:05.954Z,17.69
2022-08-21T22:39:39.043Z,17.71
2022-08-21T22:42:10.863Z,17.79
2022-08-21T22:44:49.735Z,17.78
2022-08-21T22:47:22.628Z,17.74
2022-08-21T22:49:54.082Z,17.75
2022-08-21T22:52:24.821Z,17.74
2022-08-21T22:54:57.572Z,17.74
2022-08-21T22:57:32.047Z,17.66
2022-08-21T23:00:34.178Z,17.47
2022-08-21T23:03:03.586Z,17.72
2022-08-21T23:05:30.554Z,17.73
2022-08-21T23:08:16.045Z,17.68
2022-08-21T23:10:58.421Z,17.52
2022-08-21T23:13:24.997Z,17.66
2022-08-21T23:16:07.539Z,17.70
2022-08-21T23:18:55.921Z,17.69
2022-08-21T23:21:40.697Z,17.67
2022-08-21T23:24:19.391Z,17.67
2022-08-21T23:27:22.899Z,17.67
2022-08-21T23:30:19.030Z,17.57
2022-08-21T23:33:16.551Z,17.54
2022-08-21T23:36:14.487Z,17.52
2022-08-21T23:39:05.173Z,17.50
2022-08-21T23:41:46.562Z,17.53
2022-08-21T23:44:27.123Z,17.52
2022-08-21T23:47:27.347Z,17.47
2022-08-21T23:50:14.052Z,17.51
2022-08-21T23:53:11.353Z,17.50
2022-08-21T23:55:55.144Z,17.49
2022-08-21T23:58:36.262Z,17.50
